Albany, Texas
Current Conditions -  °F | °C
As of 8:55 AM on Sunday 21 Dec 2014 (Local Time) from KBKD Reporting Station
Overcast Overcast  
Wind Chill: 44°   Ceiling: 1100
Heat Index: 49°   Visibility: 10mi
Dew Point: 44°   Wind: 12mph
Humidity: 82%   Direction: 160°SSE
Pressure: 30.02"   Gusts: NA
Location:  32.72°N, 99.3°W
Report Text: KBKD 211455Z AUTO 16010KT 10SM BKN011 OVC017 09/06 A3002 RMK AO2 T00930064
Loading
Personal Weather Stations






























Interactive Weather Map New forecast layout! Learn more

10-Day Weather Forecast

Advertisements
Track Severe Weather on mobile